createdAt,value
2019-04-04T00:01:09.937Z,968.74
2019-04-04T00:02:09.932Z,968.68
2019-04-04T00:04:03.075Z,968.60
2019-04-04T00:05:03.048Z,968.56
2019-04-04T00:06:58.000Z,968.59
2019-04-04T00:07:56.165Z,968.67
2019-04-04T00:09:49.298Z,968.74
2019-04-04T00:10:49.279Z,968.74
2019-04-04T00:12:42.399Z,968.65
2019-04-04T00:13:42.621Z,968.65
2019-04-04T00:15:35.529Z,968.62
2019-04-04T00:16:35.508Z,968.54
2019-04-04T00:18:28.622Z,968.50
2019-04-04T00:19:29.908Z,968.50
2019-04-04T00:21:21.763Z,968.45
2019-04-04T00:22:21.737Z,968.46
2019-04-04T00:24:14.859Z,968.47
2019-04-04T00:25:14.862Z,968.49
2019-04-04T00:27:07.994Z,968.48
2019-04-04T00:28:07.970Z,968.51
2019-04-04T00:30:01.098Z,968.50
2019-04-04T00:31:01.084Z,968.50
2019-04-04T00:32:54.218Z,968.47
2019-04-04T00:33:55.914Z,968.51
2019-04-04T00:35:47.322Z,968.55
2019-04-04T00:36:47.318Z,968.53
2019-04-04T00:38:40.463Z,968.47
2019-04-04T00:39:40.493Z,968.41
2019-04-04T00:41:33.548Z,968.41
2019-04-04T00:42:33.548Z,968.44
2019-04-04T00:44:26.691Z,968.32
2019-04-04T00:45:28.733Z,968.28
2019-04-04T00:47:19.782Z,968.21
2019-04-04T00:48:19.778Z,968.16
2019-04-04T00:50:12.922Z,968.10
2019-04-04T00:51:12.902Z,968.04
2019-04-04T00:53:06.013Z,967.96
2019-04-04T00:54:06.008Z,967.89
2019-04-04T00:55:59.162Z,967.80
2019-04-04T00:56:59.123Z,967.81
2019-04-04T00:58:52.575Z,967.92
2019-04-04T00:59:53.652Z,967.97
2019-04-04T01:01:45.373Z,967.88
2019-04-04T01:02:45.355Z,967.86
2019-04-04T01:04:38.474Z,967.96
2019-04-04T01:05:38.470Z,967.97
2019-04-04T01:07:31.619Z,967.92
2019-04-04T01:08:31.597Z,967.93
2019-04-04T01:10:24.723Z,967.82
2019-04-04T01:11:24.716Z,967.79
2019-04-04T01:13:17.848Z,967.70
2019-04-04T01:14:17.831Z,967.64
2019-04-04T01:16:10.952Z,967.54
2019-04-04T01:17:10.945Z,967.54
2019-04-04T01:19:04.090Z,967.50
2019-04-04T01:20:04.063Z,967.46
2019-04-04T01:21:57.187Z,967.35
2019-04-04T01:22:57.182Z,967.34
2019-04-04T01:24:50.821Z,967.33
2019-04-04T01:25:50.796Z,967.34
2019-04-04T01:27:43.917Z,967.37
2019-04-04T01:28:43.914Z,967.32
2019-04-04T01:30:37.050Z,967.32
2019-04-04T01:31:37.027Z,967.34
2019-04-04T01:33:30.153Z,967.30
2019-04-04T01:34:30.150Z,967.27
2019-04-04T01:36:25.171Z,967.28
2019-04-04T01:37:23.272Z,967.30
2019-04-04T01:39:16.387Z,967.33
2019-04-04T01:40:16.381Z,967.32
2019-04-04T01:42:09.519Z,967.34
2019-04-04T01:43:09.961Z,967.30
2019-04-04T01:45:02.619Z,967.32
2019-04-04T01:46:02.614Z,967.30
2019-04-04T01:47:55.754Z,967.28
2019-04-04T01:48:55.729Z,967.25
2019-04-04T01:50:48.848Z,967.29
2019-04-04T01:51:48.845Z,967.26
2019-04-04T01:53:41.992Z,967.31
2019-04-04T01:54:41.965Z,967.38
2019-04-04T01:56:36.898Z,967.44
2019-04-04T01:57:35.077Z,967.40
2019-04-04T01:59:28.215Z,967.33
2019-04-04T02:00:28.190Z,967.30
2019-04-04T02:02:21.316Z,967.05
2019-04-04T02:03:22.670Z,966.92
2019-04-04T02:05:14.447Z,966.75
2019-04-04T02:06:14.421Z,966.70
2019-04-04T02:08:07.543Z,966.85
2019-04-04T02:09:07.538Z,967.01
2019-04-04T02:11:00.677Z,967.14
2019-04-04T02:12:00.650Z,967.15
2019-04-04T02:13:53.776Z,967.26
2019-04-04T02:14:53.785Z,967.28
2019-04-04T02:16:50.818Z,967.27
2019-04-04T02:17:46.877Z,967.16
2019-04-04T02:19:40.008Z,966.98
2019-04-04T02:20:40.005Z,966.95
2019-04-04T02:22:33.152Z,966.95
2019-04-04T02:23:33.123Z,966.99
2019-04-04T02:25:26.235Z,967.00
2019-04-04T02:26:26.230Z,966.98
2019-04-04T02:28:19.375Z,966.80
2019-04-04T02:29:19.358Z,966.77
2019-04-04T02:31:12.467Z,966.82
2019-04-04T02:32:12.463Z,966.84
2019-04-04T02:34:06.463Z,966.81
2019-04-04T02:35:10.278Z,966.83
2019-04-04T02:36:58.696Z,966.87
2019-04-04T02:37:58.692Z,966.83
2019-04-04T02:39:51.832Z,966.78
2019-04-04T02:40:51.808Z,966.78
2019-04-04T02:42:44.926Z,966.77
2019-04-04T02:43:44.918Z,966.75
2019-04-04T02:45:38.903Z,966.69
2019-04-04T02:46:38.031Z,966.71
2019-04-04T02:48:31.154Z,966.78
2019-04-04T02:49:31.147Z,966.81
2019-04-04T02:51:25.288Z,966.83
2019-04-04T02:52:25.263Z,966.84
2019-04-04T02:54:18.381Z,966.82
2019-04-04T02:55:18.378Z,966.72
2019-04-04T02:57:11.512Z,966.51
2019-04-04T02:58:14.235Z,966.36
2019-04-04T03:00:04.623Z,966.27
2019-04-04T03:01:04.610Z,966.30
2019-04-04T03:02:57.737Z,966.53
2019-04-04T03:03:57.719Z,966.53
2019-04-04T03:05:51.977Z,966.56
2019-04-04T03:06:50.832Z,966.51
2019-04-04T03:08:44.467Z,966.42
2019-04-04T03:09:44.446Z,966.39
2019-04-04T03:11:37.565Z,966.38
2019-04-04T03:12:37.564Z,966.31
2019-04-04T03:14:30.697Z,966.34
2019-04-04T03:15:30.677Z,966.38
2019-04-04T03:17:23.798Z,966.39
2019-04-04T03:18:23.788Z,966.25
2019-04-04T03:20:17.573Z,966.05
2019-04-04T03:21:16.902Z,966.01
2019-04-04T03:23:10.036Z,965.98
2019-04-04T03:24:10.023Z,965.98
2019-04-04T03:26:03.154Z,966.09
2019-04-04T03:27:03.144Z,966.10
2019-04-04T03:28:56.258Z,966.12
2019-04-04T03:29:56.253Z,966.08
2019-04-04T03:31:49.387Z,965.99
2019-04-04T03:32:54.172Z,965.94
2019-04-04T03:34:47.720Z,965.92
2019-04-04T03:35:42.485Z,965.87
2019-04-04T03:37:40.321Z,965.88
2019-04-04T03:38:35.600Z,965.84
2019-04-04T03:40:28.722Z,965.82
2019-04-04T03:41:30.650Z,965.75
2019-04-04T03:43:21.848Z,965.83
2019-04-04T03:44:21.831Z,965.88
2019-04-04T03:46:14.951Z,965.97
2019-04-04T03:47:14.946Z,965.99
2019-04-04T03:49:08.091Z,965.96
2019-04-04T03:50:08.064Z,965.94
2019-04-04T03:52:01.181Z,965.90
2019-04-04T03:53:01.177Z,965.90
2019-04-04T03:54:56.303Z,965.79
2019-04-04T03:55:54.295Z,965.80
2019-04-04T03:57:47.416Z,965.74
2019-04-04T03:58:47.412Z,965.72
2019-04-04T04:00:40.712Z,965.73
2019-04-04T04:01:42.827Z,965.70
2019-04-04T04:03:33.653Z,965.58
2019-04-04T04:04:33.644Z,965.57
2019-04-04T04:06:26.779Z,965.58
2019-04-04T04:07:26.760Z,965.57
2019-04-04T04:09:19.877Z,965.64
2019-04-04T04:10:19.870Z,965.64
2019-04-04T04:12:13.007Z,965.67
2019-04-04T04:13:16.176Z,965.70
2019-04-04T04:15:06.105Z,965.60
2019-04-04T04:16:06.095Z,965.56
2019-04-04T04:17:59.286Z,965.48
2019-04-04T04:18:59.209Z,965.56
2019-04-04T04:20:52.330Z,965.55
2019-04-04T04:21:52.325Z,965.51
2019-04-04T04:23:45.462Z,965.51
2019-04-04T04:24:45.438Z,965.53
2019-04-04T04:26:40.982Z,965.54
2019-04-04T04:27:38.554Z,965.54
2019-04-04T04:29:31.685Z,965.49
2019-04-04T04:30:31.668Z,965.51
2019-04-04T04:32:24.793Z,965.50
2019-04-04T04:33:28.940Z,965.49
2019-04-04T04:35:17.925Z,965.52
2019-04-04T04:36:17.905Z,965.53
2019-04-04T04:38:12.036Z,965.55
2019-04-04T04:39:12.030Z,965.57
2019-04-04T04:41:05.155Z,965.55
2019-04-04T04:42:05.129Z,965.56
2019-04-04T04:43:58.290Z,965.53
2019-04-04T04:44:58.249Z,965.52
2019-04-04T04:46:51.392Z,965.49
2019-04-04T04:47:53.619Z,965.52
2019-04-04T04:49:44.490Z,965.43
2019-04-04T04:50:44.486Z,965.38
2019-04-04T04:52:37.634Z,965.34
2019-04-04T04:53:37.610Z,965.32
2019-04-04T04:55:30.722Z,965.40
2019-04-04T04:56:31.291Z,965.37
2019-04-04T04:58:23.856Z,965.36
2019-04-04T04:59:23.839Z,965.37
2019-04-04T05:01:18.336Z,965.25
2019-04-04T05:02:16.959Z,965.20
2019-04-04T05:04:10.093Z,965.24
2019-04-04T05:05:10.068Z,965.30
2019-04-04T05:07:03.193Z,965.34
2019-04-04T05:08:03.190Z,965.34
2019-04-04T05:09:56.326Z,965.33
2019-04-04T05:10:56.301Z,965.28
2019-04-04T05:12:52.719Z,965.19
2019-04-04T05:13:49.430Z,965.25
2019-04-04T05:15:42.559Z,965.29
2019-04-04T05:16:42.537Z,965.27
2019-04-04T05:18:35.661Z,965.21
2019-04-04T05:19:35.656Z,965.16
2019-04-04T05:21:28.976Z,965.25
2019-04-04T05:22:28.770Z,965.28
2019-04-04T05:24:21.894Z,965.32
2019-04-04T05:25:21.885Z,965.30
2019-04-04T05:27:15.047Z,965.32
2019-04-04T05:28:14.999Z,965.28
2019-04-04T05:30:08.524Z,965.26
2019-04-04T05:31:08.111Z,965.25
2019-04-04T05:33:01.249Z,965.25
2019-04-04T05:34:01.240Z,965.27
2019-04-04T05:35:54.341Z,965.20
2019-04-04T05:36:54.351Z,965.20
2019-04-04T05:38:47.548Z,965.22
2019-04-04T05:39:50.926Z,965.23
2019-04-04T05:41:40.579Z,965.22
2019-04-04T05:42:40.580Z,965.20
2019-04-04T05:44:34.281Z,965.17
2019-04-04T05:45:33.710Z,965.16
2019-04-04T05:47:26.823Z,965.14
2019-04-04T05:48:27.071Z,965.15
2019-04-04T05:50:19.958Z,965.16
2019-04-04T05:51:19.935Z,965.17
2019-04-04T05:53:13.174Z,965.12
2019-04-04T05:54:13.049Z,965.15
2019-04-04T05:56:06.544Z,965.15
2019-04-04T05:57:06.181Z,965.15
2019-04-04T05:58:59.286Z,965.06
2019-04-04T05:59:59.292Z,964.99
2019-04-04T06:01:52.447Z,965.05
2019-04-04T06:02:52.450Z,965.02
2019-04-04T06:04:45.550Z,965.04
2019-04-04T06:05:45.566Z,965.15
2019-04-04T06:07:38.696Z,965.17
2019-04-04T06:08:42.311Z,965.15
2019-04-04T06:10:31.807Z,965.21
2019-04-04T06:11:31.803Z,965.24
2019-04-04T06:13:26.719Z,965.29
2019-04-04T06:14:24.928Z,965.35
2019-04-04T06:16:18.050Z,965.33
2019-04-04T06:17:18.029Z,965.33
2019-04-04T06:19:13.982Z,965.31
2019-04-04T06:20:12.954Z,965.26
2019-04-04T06:22:04.307Z,965.14
2019-04-04T06:23:04.296Z,965.17
2019-04-04T06:24:59.310Z,965.18
2019-04-04T06:25:57.423Z,965.14
2019-04-04T06:27:50.536Z,965.07
2019-04-04T06:28:50.524Z,965.11
2019-04-04T06:30:45.166Z,965.14
2019-04-04T06:31:45.142Z,965.15
2019-04-04T06:33:38.274Z,965.11
2019-04-04T06:34:38.271Z,965.18
2019-04-04T06:36:31.411Z,965.19
2019-04-04T06:37:34.073Z,965.13
2019-04-04T06:39:25.153Z,965.18
2019-04-04T06:40:24.502Z,965.21
2019-04-04T06:42:18.229Z,965.17
2019-04-04T06:43:17.616Z,965.16
2019-04-04T06:45:10.741Z,965.28
2019-04-04T06:46:10.751Z,965.37
2019-04-04T06:48:03.879Z,965.41
2019-04-04T06:49:04.234Z,965.41
2019-04-04T06:50:57.020Z,965.36
2019-04-04T06:51:57.018Z,965.40
2019-04-04T06:53:53.312Z,965.37
2019-04-04T06:54:50.131Z,965.34
2019-04-04T06:56:43.272Z,965.35
2019-04-04T06:57:43.261Z,965.39
2019-04-04T06:59:36.862Z,965.44
2019-04-04T07:00:36.384Z,965.42
2019-04-04T07:02:29.513Z,965.37
2019-04-04T07:03:29.524Z,965.34
2019-04-04T07:05:22.647Z,965.26
2019-04-04T07:06:22.628Z,965.23
2019-04-04T07:08:16.256Z,965.24
2019-04-04T07:09:18.453Z,965.31
2019-04-04T07:11:21.085Z,965.38
2019-04-04T07:12:20.864Z,965.38
2019-04-04T07:14:02.475Z,965.40
2019-04-04T07:15:02.469Z,965.36
2019-04-04T07:16:55.688Z,965.39
2019-04-04T07:17:55.583Z,965.39
2019-04-04T07:19:48.705Z,965.43
2019-04-04T07:20:48.982Z,965.47
2019-04-04T07:22:41.833Z,965.43
2019-04-04T07:23:42.045Z,965.50
2019-04-04T07:25:35.955Z,965.47
2019-04-04T07:26:34.924Z,965.46
2019-04-04T07:28:30.682Z,965.45
2019-04-04T07:29:28.043Z,965.46
2019-04-04T07:31:21.166Z,965.51
2019-04-04T07:32:21.168Z,965.55
2019-04-04T07:34:14.338Z,965.60
2019-04-04T07:35:16.842Z,965.64
2019-04-04T07:37:07.407Z,965.61
2019-04-04T07:38:07.401Z,965.56
2019-04-04T07:40:03.239Z,965.63
2019-04-04T07:41:00.519Z,965.58
2019-04-04T07:42:53.641Z,965.50
2019-04-04T07:43:53.639Z,965.51
2019-04-04T07:45:46.789Z,965.48
2019-04-04T07:46:46.767Z,965.53
2019-04-04T07:48:39.890Z,965.59
2019-04-04T07:49:40.293Z,965.58
2019-04-04T07:51:33.026Z,965.60
2019-04-04T07:52:33.586Z,965.59
2019-04-04T07:54:26.125Z,965.62
2019-04-04T07:55:26.129Z,965.62
2019-04-04T07:57:19.756Z,965.63
2019-04-04T07:58:19.266Z,965.73
2019-04-04T08:00:12.408Z,965.84
2019-04-04T08:01:12.402Z,965.87
2019-04-04T08:03:05.566Z,965.91
2019-04-04T08:04:06.761Z,965.92
2019-04-04T08:05:59.160Z,965.81
2019-04-04T08:06:59.147Z,965.77
2019-04-04T08:08:52.298Z,965.77
2019-04-04T08:09:52.265Z,965.75
2019-04-04T08:11:45.395Z,965.76
2019-04-04T08:12:45.391Z,965.72
2019-04-04T08:14:38.529Z,965.74
2019-04-04T08:15:38.510Z,965.73
2019-04-04T08:17:31.638Z,965.75
2019-04-04T08:18:31.625Z,965.73
2019-04-04T08:20:24.773Z,965.69
2019-04-04T08:21:24.747Z,965.69
2019-04-04T08:23:18.487Z,965.80
2019-04-04T08:24:17.875Z,965.92
2019-04-04T08:26:11.032Z,965.89
2019-04-04T08:27:11.022Z,965.89
2019-04-04T08:29:04.133Z,965.86
2019-04-04T08:30:04.150Z,965.84
2019-04-04T08:31:57.322Z,965.79
2019-04-04T08:32:57.283Z,965.83
2019-04-04T08:34:50.362Z,965.90
2019-04-04T08:35:50.361Z,965.88
2019-04-04T08:37:43.501Z,965.88
2019-04-04T08:38:43.479Z,965.84
2019-04-04T08:40:37.107Z,965.85
2019-04-04T08:41:37.122Z,965.86
2019-04-04T08:43:30.251Z,965.87
2019-04-04T08:44:30.223Z,965.85
2019-04-04T08:46:23.366Z,965.80
2019-04-04T08:47:23.356Z,965.81
2019-04-04T08:49:16.504Z,965.83
2019-04-04T08:50:16.472Z,965.84
2019-04-04T08:52:16.561Z,965.82
2019-04-04T08:53:09.602Z,965.74
2019-04-04T08:56:02.724Z,965.64
2019-04-04T08:57:55.866Z,965.51
2019-04-04T08:58:55.849Z,965.40
2019-04-04T09:00:49.499Z,965.27
2019-04-04T09:01:49.483Z,965.24
2019-04-04T09:03:42.600Z,965.19
2019-04-04T09:04:42.589Z,965.23
2019-04-04T09:06:35.732Z,965.36
2019-04-04T09:07:35.705Z,965.32
2019-04-04T09:09:28.866Z,965.37
2019-04-04T09:10:28.829Z,965.45
2019-04-04T09:12:21.984Z,965.48
2019-04-04T09:13:21.958Z,965.42
2019-04-04T09:15:15.110Z,965.40
2019-04-04T09:16:15.098Z,965.48
2019-04-04T09:18:08.250Z,965.49
2019-04-04T09:19:08.201Z,965.50
2019-04-04T09:21:01.340Z,965.54
2019-04-04T09:22:01.324Z,965.55
2019-04-04T09:23:54.972Z,965.70
2019-04-04T09:24:54.947Z,965.69
2019-04-04T09:26:48.568Z,965.58
2019-04-04T09:27:48.564Z,965.56
2019-04-04T09:29:41.716Z,965.65
2019-04-04T09:30:41.693Z,965.64
2019-04-04T09:32:34.818Z,965.56
2019-04-04T09:33:34.815Z,965.57
2019-04-04T09:35:30.955Z,965.53
2019-04-04T09:36:30.934Z,965.55
2019-04-04T09:38:24.064Z,965.60
2019-04-04T09:39:24.057Z,965.68
2019-04-04T09:41:40.706Z,965.74
2019-04-04T09:42:40.888Z,965.73
2019-04-04T09:44:33.865Z,965.84
2019-04-04T09:45:33.814Z,965.85
2019-04-04T09:47:26.943Z,965.82
2019-04-04T09:48:26.926Z,965.81
2019-04-04T09:50:20.064Z,965.89
2019-04-04T09:51:20.062Z,965.94
2019-04-04T09:53:13.202Z,966.11
2019-04-04T09:54:13.174Z,966.09
2019-04-04T09:56:06.305Z,966.04
2019-04-04T09:57:06.302Z,966.00
2019-04-04T09:59:02.439Z,965.94
2019-04-04T10:00:02.412Z,965.90
2019-04-04T10:01:57.029Z,965.88
2019-04-04T10:02:57.027Z,965.85
2019-04-04T10:04:50.677Z,965.79
2019-04-04T10:05:51.293Z,965.81
2019-04-04T10:07:43.760Z,965.87
2019-04-04T10:08:43.756Z,965.93
2019-04-04T10:10:36.910Z,965.94
2019-04-04T10:11:36.878Z,965.95
2019-04-04T10:13:29.998Z,966.03
2019-04-04T10:14:29.999Z,966.06
2019-04-04T10:16:23.143Z,965.97
2019-04-04T10:17:23.124Z,965.97
2019-04-04T10:19:16.247Z,965.94
2019-04-04T10:20:16.233Z,965.97
2019-04-04T10:22:09.365Z,965.89
2019-04-04T10:23:09.354Z,965.89
2019-04-04T10:25:02.479Z,965.96
2019-04-04T10:26:02.477Z,966.05
2019-04-04T10:27:55.616Z,966.11
2019-04-04T10:28:55.588Z,966.13
2019-04-04T10:30:48.715Z,966.17
2019-04-04T10:31:48.708Z,966.17
2019-04-04T10:33:42.364Z,966.17
2019-04-04T10:34:41.833Z,966.17
2019-04-04T10:36:34.954Z,966.16
2019-04-04T10:37:34.951Z,966.17
2019-04-04T10:39:29.314Z,966.27
2019-04-04T10:40:28.068Z,966.30
2019-04-04T10:42:21.686Z,966.31
2019-04-04T10:43:21.686Z,966.21
2019-04-04T10:45:14.840Z,966.18
2019-04-04T10:46:14.821Z,966.15
2019-04-04T10:48:07.964Z,966.18
2019-04-04T10:49:08.421Z,966.25
2019-04-04T10:51:02.073Z,966.18
2019-04-04T10:52:02.059Z,966.18
2019-04-04T10:53:56.678Z,966.12
2019-04-04T10:54:56.671Z,966.19
2019-04-04T10:56:49.811Z,966.29
2019-04-04T10:57:49.783Z,966.33
2019-04-04T10:59:44.412Z,966.28
2019-04-04T11:00:44.404Z,966.22
2019-04-04T11:02:38.049Z,966.20
2019-04-04T11:03:38.021Z,966.19
2019-04-04T11:05:31.151Z,966.24
2019-04-04T11:06:31.199Z,966.23
2019-04-04T11:08:24.298Z,966.26
2019-04-04T11:09:24.270Z,966.23
2019-04-04T11:11:17.392Z,966.19
2019-04-04T11:12:17.395Z,966.15
2019-04-04T11:14:11.033Z,966.17
2019-04-04T11:15:11.006Z,966.22
2019-04-04T11:17:04.629Z,966.26
2019-04-04T11:18:04.625Z,966.26
2019-04-04T11:19:57.760Z,966.21
2019-04-04T11:20:57.739Z,966.21
2019-04-04T11:22:50.862Z,966.21
2019-04-04T11:23:50.857Z,966.24
2019-04-04T11:25:45.488Z,966.33
2019-04-04T11:26:45.472Z,966.39
2019-04-04T11:28:38.598Z,966.33
2019-04-04T11:29:38.599Z,966.34
2019-04-04T11:31:32.229Z,966.22
2019-04-04T11:32:32.206Z,966.24
2019-04-04T11:34:25.324Z,966.38
2019-04-04T11:35:25.327Z,966.41
2019-04-04T11:37:19.962Z,966.47
2019-04-04T11:38:19.938Z,966.46
2019-04-04T11:40:13.555Z,966.37
2019-04-04T11:41:13.554Z,966.40
2019-04-04T11:43:07.204Z,966.34
2019-04-04T11:44:07.177Z,966.31
2019-04-04T11:46:00.797Z,966.33
2019-04-04T11:47:00.788Z,966.31
2019-04-04T11:48:53.928Z,966.37
2019-04-04T11:49:53.914Z,966.42
2019-04-04T11:51:47.041Z,966.51
2019-04-04T11:52:47.035Z,966.58
2019-04-04T11:54:40.690Z,966.65
2019-04-04T11:55:40.653Z,966.72
2019-04-04T11:57:34.282Z,966.80
2019-04-04T11:58:34.277Z,966.81
2019-04-04T12:00:28.904Z,966.72
2019-04-04T12:01:28.888Z,966.68
2019-04-04T12:03:27.009Z,966.70
2019-04-04T12:04:27.008Z,966.72
2019-04-04T12:06:20.164Z,966.86
2019-04-04T12:07:20.138Z,966.99
2019-04-04T12:09:13.264Z,967.03
2019-04-04T12:10:13.248Z,967.03
2019-04-04T12:12:06.888Z,967.10
2019-04-04T12:13:06.868Z,967.09
2019-04-04T12:15:00.480Z,967.12
2019-04-04T12:16:00.476Z,967.13
2019-04-04T12:17:53.620Z,967.19
2019-04-04T12:18:53.594Z,967.23
2019-04-04T12:21:06.721Z,967.26
2019-04-04T12:22:06.717Z,967.24
2019-04-04T12:24:22.858Z,967.24
2019-04-04T12:25:22.840Z,967.27
2019-04-04T12:27:28.966Z,967.33
2019-04-04T12:28:28.967Z,967.38
2019-04-04T12:30:22.101Z,967.41
2019-04-04T12:31:22.078Z,967.46
2019-04-04T12:33:15.720Z,967.44
2019-04-04T12:34:15.706Z,967.47
2019-04-04T12:36:09.339Z,967.57
2019-04-04T12:37:09.323Z,967.60
2019-04-04T12:39:02.451Z,967.72
2019-04-04T12:40:02.446Z,967.74
2019-04-04T12:41:55.584Z,967.68
2019-04-04T12:42:55.560Z,967.72
2019-04-04T12:44:48.689Z,967.75
2019-04-04T12:45:48.679Z,967.79
2019-04-04T12:47:41.834Z,967.79
2019-04-04T12:48:41.811Z,967.73
2019-04-04T12:50:34.931Z,967.64
2019-04-04T12:51:34.928Z,967.63
2019-04-04T12:53:28.069Z,967.68
2019-04-04T12:54:28.035Z,967.73
2019-04-04T12:56:21.157Z,967.79
2019-04-04T12:57:21.149Z,967.78
2019-04-04T12:59:14.331Z,967.80
2019-04-04T13:00:14.267Z,967.82
2019-04-04T13:02:07.382Z,967.70
2019-04-04T13:03:07.376Z,967.67
2019-04-04T13:05:00.566Z,967.63
2019-04-04T13:06:00.490Z,967.63
2019-04-04T13:07:53.609Z,967.66
2019-04-04T13:08:53.627Z,967.75
2019-04-04T13:10:46.743Z,967.85
2019-04-04T13:11:46.729Z,967.79
2019-04-04T13:13:39.845Z,967.80
2019-04-04T13:14:39.835Z,967.90
2019-04-04T13:16:32.973Z,968.18
2019-04-04T13:17:32.948Z,968.25
2019-04-04T13:19:26.088Z,968.25
2019-04-04T13:20:26.072Z,968.23
2019-04-04T13:22:19.200Z,968.24
2019-04-04T13:23:19.180Z,968.29
2019-04-04T13:25:12.317Z,968.28
2019-04-04T13:26:12.320Z,968.25
2019-04-04T13:28:05.949Z,968.30
2019-04-04T13:29:05.922Z,968.27
2019-04-04T13:30:59.043Z,968.31
2019-04-04T13:31:59.045Z,968.30
2019-04-04T13:33:52.205Z,968.36
2019-04-04T13:34:59.205Z,968.33
2019-04-04T13:36:46.276Z,968.27
2019-04-04T13:37:46.267Z,968.23
2019-04-04T13:39:39.400Z,968.14
2019-04-04T13:40:45.290Z,968.08
2019-04-04T13:42:32.508Z,968.11
2019-04-04T13:43:32.501Z,968.02
2019-04-04T13:45:26.066Z,967.99
2019-04-04T13:46:26.839Z,967.92
2019-04-04T13:48:18.735Z,967.83
2019-04-04T13:49:18.735Z,967.73
2019-04-04T13:51:11.866Z,967.60
2019-04-04T13:52:11.867Z,967.60
2019-04-04T13:54:04.978Z,967.55
2019-04-04T13:55:04.966Z,967.60
2019-04-04T13:56:58.108Z,967.71
2019-04-04T13:57:58.112Z,967.74
2019-04-04T13:59:51.205Z,967.80
2019-04-04T14:00:51.198Z,967.90
2019-04-04T14:02:44.333Z,967.97
2019-04-04T14:03:44.311Z,967.97
2019-04-04T14:05:37.439Z,968.08
2019-04-04T14:06:37.429Z,968.12
2019-04-04T14:08:30.575Z,968.26
2019-04-04T14:09:30.554Z,968.39
2019-04-04T14:11:23.670Z,968.64
2019-04-04T14:12:23.665Z,968.72
2019-04-04T14:14:16.810Z,968.77
2019-04-04T14:15:16.792Z,968.82
2019-04-04T14:17:09.916Z,968.76
2019-04-04T14:18:09.912Z,968.85
2019-04-04T14:20:03.052Z,968.78
2019-04-04T14:21:04.196Z,968.75
2019-04-04T14:22:56.161Z,968.59
2019-04-04T14:23:56.987Z,968.53
2019-04-04T14:25:49.293Z,968.55
2019-04-04T14:26:49.266Z,968.56
2019-04-04T14:28:42.389Z,968.55
2019-04-04T14:29:42.382Z,968.56
2019-04-04T14:31:35.516Z,968.66
2019-04-04T14:32:35.497Z,968.78
2019-04-04T14:34:28.616Z,968.80
2019-04-04T14:35:28.613Z,968.85
2019-04-04T14:37:21.756Z,968.96
2019-04-04T14:38:21.735Z,968.97
2019-04-04T14:40:14.855Z,969.03
2019-04-04T14:41:14.849Z,969.03
2019-04-04T14:43:07.997Z,969.03
2019-04-04T14:44:07.974Z,969.02
2019-04-04T14:46:01.091Z,969.03
2019-04-04T14:47:01.086Z,969.01
2019-04-04T14:48:54.223Z,968.94
2019-04-04T14:49:54.203Z,968.97
2019-04-04T14:51:47.333Z,968.92
2019-04-04T14:52:49.170Z,968.86
2019-04-04T14:54:40.459Z,968.82
2019-04-04T14:55:40.455Z,968.81
2019-04-04T14:57:33.556Z,968.86
2019-04-04T14:58:33.553Z,968.92
2019-04-04T15:00:26.692Z,968.99
2019-04-04T15:01:26.667Z,969.03
2019-04-04T15:03:19.833Z,969.09
2019-04-04T15:04:19.785Z,969.09
2019-04-04T15:06:12.924Z,969.17
2019-04-04T15:07:12.900Z,969.14
2019-04-04T15:09:06.026Z,969.15
2019-04-04T15:10:06.020Z,969.16
2019-04-04T15:11:59.155Z,969.20
2019-04-04T15:12:59.131Z,969.23
2019-04-04T15:14:52.251Z,969.35
2019-04-04T15:15:52.242Z,969.36
2019-04-04T15:17:45.877Z,969.36
2019-04-04T15:18:45.857Z,969.42
2019-04-04T15:20:38.976Z,969.39
2019-04-04T15:21:38.972Z,969.38
2019-04-04T15:23:32.114Z,969.41
2019-04-04T15:24:32.084Z,969.43
2019-04-04T15:26:25.203Z,969.32
2019-04-04T15:27:25.195Z,969.33
2019-04-04T15:29:18.346Z,969.29
2019-04-04T15:30:18.320Z,969.28
2019-04-04T15:32:11.438Z,969.28
2019-04-04T15:33:11.434Z,969.26
2019-04-04T15:35:04.570Z,969.29
2019-04-04T15:36:04.552Z,969.29
2019-04-04T15:37:57.663Z,969.21
2019-04-04T15:38:57.659Z,969.15
2019-04-04T15:40:51.802Z,969.08
2019-04-04T15:41:51.774Z,969.08
2019-04-04T15:43:44.893Z,969.02
2019-04-04T15:44:44.888Z,969.01
2019-04-04T15:46:38.033Z,969.06
2019-04-04T15:47:38.007Z,969.17
2019-04-04T15:49:31.137Z,969.36
2019-04-04T15:50:31.134Z,969.41
2019-04-04T15:52:24.281Z,969.47
2019-04-04T15:53:24.255Z,969.48
2019-04-04T15:55:17.378Z,969.45
2019-04-04T15:56:17.368Z,969.46
2019-04-04T15:58:10.505Z,969.44
2019-04-04T15:59:10.490Z,969.41
2019-04-04T16:01:03.604Z,969.46
2019-04-04T16:02:03.603Z,969.45
2019-04-04T16:03:56.732Z,969.50
2019-04-04T16:04:56.712Z,969.49
2019-04-04T16:06:49.831Z,969.39
2019-04-04T16:07:49.826Z,969.34
2019-04-04T16:09:42.960Z,969.27
2019-04-04T16:10:42.941Z,969.27
2019-04-04T16:12:36.075Z,969.20
2019-04-04T16:13:36.073Z,969.08
2019-04-04T16:15:29.200Z,969.17
2019-04-04T16:16:29.179Z,969.18
2019-04-04T16:18:22.296Z,969.23
2019-04-04T16:19:22.293Z,969.26
2019-04-04T16:21:15.432Z,969.27
2019-04-04T16:22:15.405Z,969.36
2019-04-04T16:24:08.528Z,969.37
2019-04-04T16:25:08.520Z,969.30
2019-04-04T16:27:01.669Z,969.39
2019-04-04T16:28:01.639Z,969.41
2019-04-04T16:29:54.758Z,969.45
2019-04-04T16:30:54.759Z,969.43
2019-04-04T16:32:47.886Z,969.39
2019-04-04T16:33:47.864Z,969.45
2019-04-04T16:35:40.984Z,969.44
2019-04-04T16:36:40.979Z,969.50
2019-04-04T16:38:34.114Z,969.57
2019-04-04T16:39:35.377Z,969.65
2019-04-04T16:41:27.228Z,969.66
2019-04-04T16:42:27.224Z,969.66
2019-04-04T16:44:20.364Z,969.72
2019-04-04T16:45:20.344Z,969.83
2019-04-04T16:47:13.468Z,969.90
2019-04-04T16:48:13.980Z,969.91
2019-04-04T16:50:06.602Z,969.95
2019-04-04T16:51:06.571Z,969.99
2019-04-04T16:52:59.703Z,969.96
2019-04-04T16:53:59.690Z,969.99
2019-04-04T16:55:52.829Z,969.91
2019-04-04T16:56:52.804Z,969.91
2019-04-04T16:58:45.925Z,969.87
2019-04-04T16:59:45.920Z,969.90
2019-04-04T17:01:39.086Z,969.87
2019-04-04T17:02:39.066Z,969.83
2019-04-04T17:04:32.182Z,969.81
2019-04-04T17:05:32.178Z,969.79
2019-04-04T17:07:25.324Z,969.74
2019-04-04T17:08:25.296Z,969.70
2019-04-04T17:10:18.411Z,969.69
2019-04-04T17:11:18.408Z,969.68
2019-04-04T17:13:12.036Z,969.77
2019-04-04T17:14:12.015Z,969.81
2019-04-04T17:16:05.147Z,969.88
2019-04-04T17:17:05.145Z,969.89
2019-04-04T17:18:58.281Z,969.90
2019-04-04T17:19:58.263Z,969.90
2019-04-04T17:21:51.417Z,969.93
2019-04-04T17:22:51.408Z,969.98
2019-04-04T17:24:44.543Z,970.04
2019-04-04T17:25:44.517Z,970.05
2019-04-04T17:27:37.657Z,970.08
2019-04-04T17:28:37.669Z,970.12
2019-04-04T17:30:31.338Z,970.24
2019-04-04T17:31:30.825Z,970.27
2019-04-04T17:33:24.220Z,970.35
2019-04-04T17:34:24.021Z,970.41
2019-04-04T17:36:19.903Z,970.40
2019-04-04T17:37:16.990Z,970.35
2019-04-04T17:39:10.105Z,970.32
2019-04-04T17:40:10.102Z,970.33
2019-04-04T17:42:03.567Z,970.39
2019-04-04T17:43:03.550Z,970.37
2019-04-04T17:44:56.341Z,970.43
2019-04-04T17:45:56.458Z,970.48
2019-04-04T17:47:49.464Z,970.49
2019-04-04T17:48:49.528Z,970.51
2019-04-04T17:50:42.636Z,970.50
2019-04-04T17:51:42.560Z,970.50
2019-04-04T17:53:35.704Z,970.55
2019-04-04T17:54:36.097Z,970.54
2019-04-04T17:56:28.810Z,970.53
2019-04-04T17:57:28.801Z,970.53
2019-04-04T17:59:21.935Z,970.62
2019-04-04T18:00:21.916Z,970.68
2019-04-04T18:02:15.042Z,970.69
2019-04-04T18:03:15.038Z,970.68